Blocker, Oklahoma
Current Conditions -  °F | °C
As of 11:53 PM on Thursday 30 Oct 2014 (Local Time) from KMLC Reporting Station
Clear Clear  
Wind Chill: 60°   Ceiling: Unl
Heat Index: 60°   Visibility: 10mi
Dew Point: 39°   Wind: 10mph
Humidity: 46%   Direction: 340°NNW
Pressure: 30.16"   Gusts: NA
Location:  35.06°N, 95.57°W
Report Text: KMLC 310453Z AUTO 34009KT 10SM CLR 16/04 A3016 RMK AO2 SLP207 T01560039
Loading
Personal Weather Stations






























Interactive Weather Map
Tropical Storm Tracking
New forecast layout! Learn more

10-Day Weather Forecast

Advertisements
Track Severe Weather on mobile